Time;durP1;ratioP1;P1;durP2;ratioP2;P2;SDS_P1;SDS_P2;PMS_P1;PMS_P2;Temp;Humidity;BMP_temperature;BMP_pressure;BME280_temperature;BME280_humidity;BME280_pressure;Samples;Min_cycle;Max_cycle;Signal;HPM_P1;HPM_P2
2023/01/10 00:00:05;;;;;;;;;1.50;1.50;;;;;5.67;100.00;101651.25;6275967;22;49509;-69
2023/01/10 00:02:30;;;;;;;;;5.25;2.25;;;;;5.92;100.00;101704.75;6274568;22;49483;-69
2023/01/10 00:04:56;;;;;;;;;3.50;3.00;;;;;5.89;100.00;101704.56;6278925;22;54390;-69
2023/01/10 00:07:21;;;;;;;;;2.50;2.50;;;;;5.87;100.00;101696.63;6279688;22;49484;-69
2023/01/10 00:09:46;;;;;;;;;2.50;2.50;;;;;5.99;100.00;101728.63;6279156;22;49270;-69
2023/01/10 00:14:55;;;;;;;;;2.00;2.00;;;;;5.81;100.00;101703.25;6279282;22;49398;-69
2023/01/10 00:17:21;;;;;;;;;4.00;1.75;;;;;5.70;100.00;101674.91;6279515;22;49318;-69
2023/01/10 00:19:46;;;;;;;;;2.25;2.25;;;;;5.98;100.00;101742.50;6279734;22;49440;-69
2023/01/10 00:22:11;;;;;;;;;3.00;2.00;;;;;5.99;100.00;101735.56;6279723;22;49218;-69
2023/01/10 00:24:37;;;;;;;;;4.25;1.50;;;;;5.24;100.00;101613.25;6279154;22;49474;-69
2023/01/10 00:27:03;;;;;;;;;4.00;2.50;;;;;5.73;100.00;101726.25;6279592;22;49310;-69
2023/01/10 00:29:34;;;;;;;;;3.00;1.50;;;;;5.95;100.00;101755.31;6279832;22;49272;-69
2023/01/10 00:32:00;;;;;;;;;8.25;4.00;;;;;5.37;100.00;101667.81;6273176;22;49403;-69
2023/01/10 00:34:25;;;;;;;;;3.50;2.00;;;;;5.60;100.00;101721.19;6278752;22;50141;-69
2023/01/10 00:36:51;;;;;;;;;0.50;0.50;;;;;5.69;100.00;101721.69;6278983;22;49216;-69
2023/01/10 00:39:19;;;;;;;;;6.75;5.00;;;;;5.77;100.00;101733.44;6279302;22;49234;-69
2023/01/10 05:59:14;;;;;;;;;6.67;5.33;;;;;6.74;100.00;101917.88;6049683;22;48616;-63
2023/01/10 06:01:39;;;;;;;;;3.00;3.00;;;;;6.05;100.00;101795.81;6269304;22;49593;-63
2023/01/10 06:04:05;;;;;;;;;5.50;3.50;;;;;6.16;100.00;101818.16;6268464;22;49664;-63
2023/01/10 06:06:30;;;;;;;;;2.00;2.00;;;;;6.60;100.00;101924.97;6266523;22;49895;-63
2023/01/10 06:08:57;;;;;;;;;3.50;3.50;;;;;5.67;100.00;101752.84;6238300;22;51624;-63
2023/01/10 06:11:28;;;;;;;;;5.75;5.75;;;;;6.51;100.00;101872.28;6266764;22;49695;-64
2023/01/10 06:13:54;;;;;;;;;7.00;6.00;;;;;6.29;100.00;101835.41;6266828;22;49534;-66
2023/01/10 06:16:20;;;;;;;;;7.25;3.25;;;;;6.49;100.00;101868.69;6266582;22;49727;-62
2023/01/10 06:18:45;;;;;;;;;7.50;6.25;;;;;6.75;100.00;101908.34;6265773;22;50730;-62
2023/01/10 06:21:10;;;;;;;;;5.25;3.00;;;;;6.52;100.00;101863.63;6269282;22;49518;-62
2023/01/10 06:23:36;;;;;;;;;6.00;6.00;;;;;6.82;100.00;101921.81;6266471;22;49825;-65
2023/01/10 06:26:01;;;;;;;;;8.25;6.75;;;;;6.28;100.00;101817.97;6266638;22;49515;-64
2023/01/10 06:28:26;;;;;;;;;6.75;3.00;;;;;6.31;100.00;101825.97;6266213;22;49672;-63
2023/01/10 06:30:52;;;;;;;;;4.00;4.00;;;;;6.14;100.00;101809.38;6263538;22;49827;-66
2023/01/10 06:33:17;;;;;;;;;3.00;3.00;;;;;6.62;100.00;101895.44;6236286;22;49906;-66
2023/01/10 06:35:45;;;;;;;;;3.50;3.00;;;;;6.30;100.00;101838.09;6265329;22;50067;-68
2023/01/10 06:38:11;;;;;;;;;2.50;2.00;;;;;6.24;100.00;101842.06;6264956;22;50618;-67
2023/01/10 06:40:37;;;;;;;;;5.00;2.75;;;;;6.69;100.00;101924.56;6264751;22;49675;-65
2023/01/10 06:43:03;;;;;;;;;3.50;3.50;;;;;6.42;100.00;101866.56;6265188;22;49780;-64
2023/01/10 06:45:28;;;;;;;;;2.25;2.25;;;;;6.43;100.00;101863.13;6264655;22;50143;-70
2023/01/10 06:47:53;;;;;;;;;5.75;5.75;;;;;6.49;100.00;101870.41;6276166;22;49534;-65
2023/01/10 06:50:22;;;;;;;;;3.25;1.50;;;;;6.80;100.00;101941.72;6277703;22;49494;-64
2023/01/10 06:52:59;;;;;;;;;4.25;2.00;;;;;6.74;100.00;101917.88;6276921;22;49360;-65
2023/01/10 06:55:25;;;;;;;;;2.00;2.00;;;;;6.38;100.00;101846.34;6274373;22;49237;-68
2023/01/10 06:57:58;;;;;;;;;5.00;3.00;;;;;6.12;100.00;101812.72;6276532;22;50813;-68
2023/01/10 07:00:26;;;;;;;;;5.50;3.00;;;;;6.53;100.00;101882.78;6277056;22;49523;-65
2023/01/10 07:02:53;;;;;;;;;2.50;2.00;;;;;5.59;100.00;101706.34;6277863;22;49431;-63
2023/01/10 07:05:19;;;;;;;;;1.75;1.75;;;;;6.63;100.00;101890.31;6277976;22;49210;-75
2023/01/10 07:07:44;;;;;;;;;5.00;2.25;;;;;6.95;100.00;101946.88;6275590;22;49917;-70
2023/01/10 07:10:10;;;;;;;;;7.00;5.50;;;;;6.74;100.00;101914.38;6267529;22;49665;-66
2023/01/10 07:12:35;;;;;;;;;5.75;3.50;;;;;6.31;100.00;101819.03;6264397;22;49735;-64
2023/01/10 07:15:01;;;;;;;;;2.75;2.00;;;;;6.93;100.00;101913.66;6262402;22;49803;-64
2023/01/10 07:17:26;;;;;;;;;4.50;3.00;;;;;6.71;100.00;101867.25;6263988;22;50671;-65
2023/01/10 07:19:51;;;;;;;;;2.25;2.25;;;;;6.69;100.00;101856.72;6263794;22;49715;-62
2023/01/10 07:22:17;;;;;;;;;3.00;3.00;;;;;6.69;100.00;101859.34;6265331;22;49800;-64
2023/01/10 07:24:42;;;;;;;;;1.50;1.50;;;;;6.86;100.00;101889.84;6264083;22;49688;-64
2023/01/10 07:27:07;;;;;;;;;7.00;5.75;;;;;7.02;100.00;101912.44;6265145;22;49755;-65
2023/01/10 07:29:33;;;;;;;;;6.50;2.00;;;;;7.03;100.00;101911.63;6265387;22;49038;-64
2023/01/10 07:31:58;;;;;;;;;4.25;2.00;;;;;6.57;100.00;101830.88;6265893;22;50227;-71
2023/01/10 07:34:24;;;;;;;;;9.25;5.00;;;;;7.13;100.00;101918.22;6265763;22;49654;-69
2023/01/10 07:36:49;;;;;;;;;7.75;5.25;;;;;7.05;100.00;101901.28;6265427;22;49874;-69
2023/01/10 07:39:14;;;;;;;;;6.00;3.00;;;;;6.98;100.00;101880.88;6263092;22;49848;-70
2023/01/10 07:41:40;;;;;;;;;4.50;3.00;;;;;7.03;100.00;101908.13;6267076;22;49715;-70
2023/01/10 07:44:05;;;;;;;;;3.50;3.50;;;;;6.48;100.00;101792.97;6267972;22;49866;-66
2023/01/10 07:46:30;;;;;;;;;5.50;2.00;;;;;7.03;100.00;101901.19;6266612;22;50878;-65
2023/01/10 07:48:56;;;;;;;;;5.00;2.50;;;;;6.37;100.00;101778.44;6266861;22;49718;-71
2023/01/10 07:51:21;;;;;;;;;2.75;2.75;;;;;7.18;100.00;101937.66;6267521;22;49734;-71
2023/01/10 07:53:46;;;;;;;;;7.00;3.00;;;;;6.68;100.00;101827.94;6269108;22;49568;-65
2023/01/10 07:56:12;;;;;;;;;5.75;4.50;;;;;7.11;100.00;101892.03;6265827;22;49786;-65
2023/01/10 07:58:37;;;;;;;;;6.50;6.00;;;;;6.98;100.00;101870.44;6266847;22;49767;-66
2023/01/10 08:01:04;;;;;;;;;2.00;1.00;;;;;6.95;100.00;101859.81;6266246;22;49783;-66
2023/01/10 08:03:31;;;;;;;;;5.75;5.00;;;;;6.60;100.00;101802.34;6267052;22;49681;-66
2023/01/10 08:06:05;;;;;;;;;6.00;6.00;;;;;6.81;100.00;101846.94;6266396;22;49847;-65
2023/01/10 08:08:32;;;;;;;;;3.50;2.50;;;;;6.98;100.00;101865.22;6269803;22;49706;-67
2023/01/10 08:11:04;;;;;;;;;5.00;2.50;;;;;7.15;100.00;101887.91;6268683;22;49750;-64
2023/01/10 08:13:30;;;;;;;;;2.25;0.50;;;;;6.95;100.00;101852.91;6267937;22;49925;-65
2023/01/10 08:15:56;;;;;;;;;6.25;6.00;;;;;7.01;100.00;101852.31;6266398;22;49787;-66
2023/01/10 08:18:25;;;;;;;;;2.50;2.00;;;;;7.19;100.00;101887.22;6265365;22;49849;-67
2023/01/10 08:20:52;;;;;;;;;4.75;2.00;;;;;7.30;100.00;101898.22;6267975;22;49628;-68
2023/01/10 08:23:18;;;;;;;;;4.50;2.25;;;;;7.44;100.00;101931.22;6293559;22;49884;-68
2023/01/10 08:25:44;;;;;;;;;3.00;2.00;;;;;7.17;100.00;101873.19;6266445;22;51180;-68
2023/01/10 08:28:10;;;;;;;;;6.75;5.75;;;;;7.41;100.00;101895.34;6266613;22;49987;-67
2023/01/10 08:30:36;;;;;;;;;4.75;4.75;;;;;7.47;100.00;101894.78;6266919;22;49721;-67
2023/01/10 08:33:03;;;;;;;;;3.00;3.00;;;;;7.43;100.00;101887.59;6267279;22;49501;-66
2023/01/10 08:35:28;;;;;;;;;3.50;3.00;;;;;7.43;100.00;101862.38;6265902;22;53087;-67
2023/01/10 08:37:58;;;;;;;;;3.25;0.75;;;;;7.26;100.00;101831.00;6266993;22;49763;-67
2023/01/10 08:40:24;;;;;;;;;7.00;6.00;;;;;7.67;100.00;101901.00;6266660;22;49706;-67
2023/01/10 08:42:58;;;;;;;;;2.25;2.25;;;;;6.99;100.00;101781.75;6266971;22;49915;-66
2023/01/10 08:45:24;;;;;;;;;3.00;2.00;;;;;7.73;100.00;101919.63;6266350;22;50593;-66
2023/01/10 08:47:49;;;;;;;;;5.50;5.50;;;;;7.44;100.00;101860.66;6266653;22;49809;-68
2023/01/10 08:50:15;;;;;;;;;2.25;2.25;;;;;7.68;100.00;101910.66;6267449;22;49681;-67
2023/01/10 08:52:40;;;;;;;;;8.00;5.00;;;;;7.46;100.00;101856.41;6266203;22;49578;-66
2023/01/10 08:55:06;;;;;;;;;1.00;1.00;;;;;7.08;100.00;101778.72;6266142;22;49669;-68
2023/01/10 08:57:31;;;;;;;;;8.50;4.25;;;;;7.62;100.00;101858.06;6266332;22;49537;-67
2023/01/10 08:59:56;;;;;;;;;4.25;2.75;;;;;7.35;100.00;101811.47;6267062;22;49901;-68
2023/01/10 09:02:22;;;;;;;;;3.50;3.25;;;;;7.77;100.00;101874.53;6266347;22;49636;-69
2023/01/10 09:04:47;;;;;;;;;5.75;5.00;;;;;7.75;100.00;101858.75;6265891;22;50836;-68
2023/01/10 09:07:12;;;;;;;;;4.75;2.00;;;;;7.55;100.00;101830.75;6268855;22;49703;-67
2023/01/10 09:09:38;;;;;;;;;2.00;2.00;;;;;7.94;100.00;101897.16;6267283;22;49572;-68
2023/01/10 09:12:53;;;;;;;;;2.25;2.25;;;;;7.25;100.00;101763.91;6267062;22;49609;-73
2023/01/10 09:14:49;;;;;;;;;5.50;5.00;;;;;7.41;100.00;101789.94;6265675;22;50703;-68
2023/01/10 09:17:14;;;;;;;;;1.50;1.50;;;;;7.98;100.00;101880.78;6266778;22;49632;-67
2023/01/10 09:19:40;;;;;;;;;3.25;3.25;;;;;7.79;100.00;101851.97;6269866;22;49962;-67
2023/01/10 09:22:05;;;;;;;;;5.00;3.75;;;;;7.37;100.00;101761.91;6266396;22;49648;-68
2023/01/10 09:24:30;;;;;;;;;3.50;2.50;;;;;7.71;100.00;101832.38;6266180;22;49758;-68
2023/01/10 09:26:55;;;;;;;;;3.00;3.00;;;;;7.73;100.00;101815.09;6266938;22;49730;-67
2023/01/10 09:29:21;;;;;;;;;7.50;5.00;;;;;7.43;100.00;101762.19;6263945;22;62503;-67
2023/01/10 09:31:46;;;;;;;;;5.50;2.50;;;;;7.59;100.00;101789.97;6266599;22;49838;-69
2023/01/10 09:34:11;;;;;;;;;8.25;4.25;;;;;7.75;100.00;101792.53;6266734;22;49691;-69
2023/01/10 09:36:37;;;;;;;;;1.75;1.00;;;;;8.24;100.00;101896.88;6266568;22;49735;-66
2023/01/10 09:39:03;;;;;;;;;5.00;3.75;;;;;7.62;100.00;101788.38;6269734;22;49738;-67
2023/01/10 09:41:37;;;;;;;;;8.00;5.50;;;;;8.23;100.00;101888.13;6268725;22;49977;-67
2023/01/10 09:44:20;;;;;;;;;3.25;3.25;;;;;8.21;100.00;101892.41;6266582;22;50909;-67
2023/01/10 09:46:54;;;;;;;;;3.00;3.00;;;;;8.22;100.00;101878.50;6266606;22;49713;-69
2023/01/10 09:49:24;;;;;;;;;6.50;5.25;;;;;7.54;100.00;101745.34;6266900;22;49821;-67
2023/01/10 09:51:51;;;;;;;;;3.25;3.25;;;;;8.10;100.00;101850.81;6268426;22;49450;-68
2023/01/10 09:54:30;;;;;;;;;8.00;3.00;;;;;8.12;100.00;101852.72;6266692;22;50827;-69
2023/01/10 09:56:58;;;;;;;;;5.00;4.75;;;;;7.92;100.00;101820.38;6266032;22;49744;-69
2023/01/10 09:59:29;;;;;;;;;6.75;5.75;;;;;8.00;100.00;101820.72;6265776;22;49946;-68
2023/01/10 10:02:12;;;;;;;;;12.25;5.25;;;;;8.27;100.00;101857.78;6266693;22;49966;-67
2023/01/10 10:04:39;;;;;;;;;3.00;3.00;;;;;8.27;100.00;101863.00;6266171;22;49797;-68
2023/01/10 10:07:12;;;;;;;;;10.75;5.75;;;;;7.49;100.00;101714.56;6267008;22;49706;-68
2023/01/10 10:09:38;;;;;;;;;4.00;2.50;;;;;8.43;100.00;101894.34;6266890;22;49751;-67
2023/01/10 10:12:20;;;;;;;;;7.00;3.75;;;;;7.97;100.00;101812.75;6266063;22;50077;-67
2023/01/10 10:15:06;;;;;;;;;3.50;3.50;;;;;8.12;100.00;101836.13;6266160;22;49971;-68
2023/01/10 10:18:12;;;;;;;;;6.50;4.50;;;;;8.45;100.00;101887.47;6265797;22;49725;-69
2023/01/10 10:20:52;;;;;;;;;6.50;3.50;;;;;8.35;100.00;101864.31;6188519;22;49712;-67
2023/01/10 10:23:51;;;;;;;;;6.75;4.75;;;;;8.43;100.00;101885.59;6266020;22;49831;-68
2023/01/10 10:26:26;;;;;;;;;7.00;5.50;;;;;8.45;100.00;101878.72;6265179;22;50478;-68
2023/01/10 10:29:33;;;;;;;;;8.00;3.00;;;;;8.11;100.00;101805.56;6264141;22;49810;-68
2023/01/10 10:32:07;;;;;;;;;7.50;6.25;;;;;8.43;100.00;101860.31;6203418;22;50058;-68
2023/01/10 10:34:46;;;;;;;;;6.75;4.75;;;;;8.40;100.00;101854.97;6260009;22;49637;-68
2023/01/10 10:37:31;;;;;;;;;4.25;2.75;;;;;8.40;100.00;101859.31;6264515;22;49772;-67
2023/01/10 10:40:02;;;;;;;;;7.75;4.75;;;;;8.12;100.00;101786.44;6265664;22;49897;-67
2023/01/10 10:42:32;;;;;;;;;7.75;6.50;;;;;7.95;100.00;101770.84;6266443;22;49625;-67
2023/01/10 10:45:03;;;;;;;;;8.50;5.50;;;;;7.95;100.00;101746.41;6265061;22;49665;-67
2023/01/10 10:47:32;;;;;;;;;7.00;3.00;;;;;7.98;100.00;101738.69;6266120;22;50619;-67
2023/01/10 10:50:10;;;;;;;;;3.50;3.00;;;;;8.06;100.00;101747.81;6266523;22;49745;-68
2023/01/10 10:52:35;;;;;;;;;2.75;2.00;;;;;7.77;100.00;101694.16;6266120;22;49583;-66
2023/01/10 10:55:03;;;;;;;;;5.25;4.50;;;;;7.86;100.00;101693.69;6268449;22;49478;-66
2023/01/10 10:57:32;;;;;;;;;8.75;6.00;;;;;7.70;100.00;101659.00;6265162;22;49747;-69
2023/01/10 11:00:00;;;;;;;;;7.00;6.25;;;;;7.99;100.00;101698.66;6263672;22;49992;-65
2023/01/10 11:02:30;;;;;;;;;6.75;6.25;;;;;8.60;100.00;101788.72;6263983;22;49571;-68
2023/01/10 11:04:59;;;;;;;;;12.00;7.00;;;;;8.35;100.00;101759.66;6265024;22;49896;-68
2023/01/10 11:07:31;;;;;;;;;4.00;3.50;;;;;8.25;100.00;101728.63;6265732;22;50913;-68
2023/01/10 11:12:30;;;;;;;;;4.00;4.00;;;;;7.70;100.00;101598.88;6263544;22;49626;-67
2023/01/10 11:14:57;;;;;;;;;3.75;3.75;;;;;7.88;100.00;101624.97;6264207;22;49631;-69
2023/01/10 11:17:31;;;;;;;;;6.25;4.25;;;;;8.02;100.00;101656.97;6263472;22;51065;-68
2023/01/10 11:19:59;;;;;;;;;8.25;5.00;;;;;8.76;100.00;101764.09;6266988;22;49739;-66
2023/01/10 11:22:27;;;;;;;;;4.25;4.25;;;;;8.76;100.00;101752.75;6267343;22;49715;-68
2023/01/10 11:24:59;;;;;;;;;6.50;4.50;;;;;8.42;100.00;101691.06;6267238;22;49501;-67
2023/01/10 11:27:28;;;;;;;;;6.25;4.25;;;;;8.55;100.00;101705.59;6267454;22;49811;-69
2023/01/10 11:30:01;;;;;;;;;7.50;4.50;;;;;8.69;100.00;101721.91;6264723;22;49746;-67
2023/01/10 11:32:55;;;;;;;;;5.00;5.00;;;;;8.53;100.00;101675.84;6269092;22;49685;-68
2023/01/10 11:35:29;;;;;;;;;2.25;1.75;;;;;8.07;100.00;101597.03;6266909;22;50070;-68
2023/01/10 11:38:04;;;;;;;;;4.50;2.75;;;;;8.85;100.00;101714.75;6266901;22;50680;-69
2023/01/10 11:40:32;;;;;;;;;4.25;4.25;;;;;7.67;100.00;101543.88;6266686;22;49813;-71
2023/01/10 11:42:59;;;;;;;;;10.75;7.00;;;;;8.20;100.00;101588.88;6266153;22;49755;-70
2023/01/10 11:45:28;;;;;;;;;3.00;3.00;;;;;8.62;100.00;101663.16;6266888;22;49695;-68
2023/01/10 11:48:06;;;;;;;;;2.00;2.00;;;;;8.93;100.00;101712.47;6267229;22;49807;-69
2023/01/10 11:50:35;;;;;;;;;1.25;1.25;;;;;7.37;100.00;101438.88;6266539;22;49775;-70
2023/01/10 11:53:00;;;;;;;;;6.00;3.75;;;;;8.70;100.00;101671.34;6266826;22;49582;-71
2023/01/10 11:55:32;;;;;;;;;7.75;5.75;;;;;8.93;100.00;101677.53;6267078;22;49724;-70
2023/01/10 11:58:13;;;;;;;;;3.75;3.00;;;;;9.03;100.00;101684.94;6266962;22;50783;-71
2023/01/10 12:00:48;;;;;;;;;3.00;2.00;;;;;8.26;100.00;101548.19;6266700;22;49761;-70
2023/01/10 12:03:21;;;;;;;;;4.00;3.00;;;;;8.62;100.00;101600.34;6266909;22;49496;-70
2023/01/10 12:05:57;;;;;;;;;1.25;1.25;;;;;8.72;100.00;101626.06;6266921;22;49764;-71
2023/01/10 12:08:31;;;;;;;;;4.25;2.00;;;;;7.87;100.00;101449.75;6267009;22;49809;-68
2023/01/10 12:11:02;;;;;;;;;4.25;3.00;;;;;8.81;100.00;101610.75;6266218;22;49608;-68
2023/01/10 12:13:41;;;;;;;;;4.00;4.00;;;;;8.90;100.00;101602.38;6268633;22;49807;-70
2023/01/10 12:16:24;;;;;;;;;2.00;2.00;;;;;9.16;100.00;101653.19;6267623;22;49599;-69
2023/01/10 12:18:53;;;;;;;;;2.50;2.25;;;;;9.09;100.00;101617.13;6266822;22;50831;-69
2023/01/10 12:21:36;;;;;;;;;7.50;2.00;;;;;8.84;100.00;101597.75;6267135;22;49804;-69
2023/01/10 12:24:08;;;;;;;;;3.00;3.00;;;;;9.04;100.00;101624.75;6267221;22;49725;-69
2023/01/10 12:26:34;;;;;;;;;2.00;2.00;;;;;9.03;100.00;101619.47;6267059;22;49569;-70
2023/01/10 12:29:25;;;;;;;;;1.75;1.50;;;;;8.91;100.00;101600.66;6265971;22;49901;-70
2023/01/10 12:31:53;;;;;;;;;2.50;2.00;;;;;8.04;100.00;101467.06;6253214;22;49781;-69
2023/01/10 12:34:22;;;;;;;;;2.50;2.00;;;;;9.13;100.00;101626.88;6267236;22;49936;-69
2023/01/10 12:37:03;;;;;;;;;4.50;2.50;;;;;9.13;100.00;101630.38;6267155;22;49834;-69
2023/01/10 12:39:39;;;;;;;;;2.00;1.25;;;;;8.80;100.00;101550.47;6267313;22;51083;-69
2023/01/10 12:45:00;;;;;;;;;2.50;2.00;;;;;9.12;100.00;101604.13;6266538;22;49797;-69
2023/01/10 12:47:41;;;;;;;;;2.00;2.00;;;;;9.21;100.00;101599.25;6265133;22;49905;-69
2023/01/10 12:50:26;;;;;;;;;6.00;1.00;;;;;9.24;100.00;101601.09;6267037;22;50457;-69
2023/01/10 12:53:07;;;;;;;;;2.75;2.00;;;;;9.22;100.00;101589.66;6263511;22;49687;-70
2023/01/10 12:55:40;;;;;;;;;1.75;1.75;;;;;9.23;100.00;101597.59;6263665;22;49749;-69
2023/01/10 12:58:12;;;;;;;;;2.75;2.00;;;;;8.85;100.00;101533.19;6266316;22;50026;-69
2023/01/10 13:00:47;;;;;;;;;3.75;3.75;;;;;8.99;100.00;101531.16;6266664;22;49687;-68
2023/01/10 13:03:17;;;;;;;;;2.75;1.75;;;;;8.63;100.00;101452.94;6265722;22;49652;-69
2023/01/10 13:05:47;;;;;;;;;4.00;2.25;;;;;8.45;100.00;101429.53;6266354;22;49698;-64
2023/01/10 13:08:16;;;;;;;;;3.00;1.00;;;;;9.08;100.00;101521.94;6270995;22;49433;-68
2023/01/10 13:10:46;;;;;;;;;2.00;1.00;;;;;8.97;100.00;101491.78;6264167;22;52172;-67
2023/01/10 13:13:19;;;;;;;;;1.00;1.00;;;;;8.87;100.00;101461.72;6265356;22;49680;-67
2023/01/10 13:15:57;;;;;;;;;1.75;1.00;;;;;8.34;100.00;101370.63;6266350;22;49843;-67
2023/01/10 13:18:26;;;;;;;;;2.00;1.25;;;;;8.94;100.00;101488.16;6266383;22;49989;-67
2023/01/10 13:21:12;;;;;;;;;2.00;2.00;;;;;9.48;100.00;101548.75;6265626;22;50970;-67
2023/01/10 13:23:46;;;;;;;;;2.00;2.00;;;;;9.34;100.00;101517.66;6268032;22;49677;-67
2023/01/10 13:26:12;;;;;;;;;1.25;1.00;;;;;9.20;100.00;101481.31;6266182;22;49943;-67
2023/01/10 13:28:49;;;;;;;;;2.00;1.00;;;;;9.50;100.00;101536.59;6272449;22;49843;-67
2023/01/10 13:31:28;;;;;;;;;14.75;10.25;;;;;8.91;100.00;101428.72;6271141;22;49707;-68
2023/01/10 13:33:59;;;;;;;;;6.75;6.75;;;;;9.10;100.00;101465.25;6265339;22;49813;-69
2023/01/10 13:36:35;;;;;;;;;43.00;37.75;;;;;9.11;100.00;101448.69;6269205;22;49905;-69
2023/01/10 13:39:06;;;;;;;;;32.75;28.00;;;;;9.07;100.00;101427.53;6265601;22;49658;-69
2023/01/10 13:44:59;;;;;;;;;6.00;4.25;;;;;9.57;100.00;101515.03;6267658;22;49460;-70
2023/01/10 13:47:39;;;;;;;;;39.25;35.75;;;;;9.57;100.00;101502.81;6269312;22;49984;-68
2023/01/10 13:50:45;;;;;;;;;47.75;41.25;;;;;9.62;100.00;101500.34;6266670;22;49721;-69
2023/01/10 13:53:11;;;;;;;;;76.00;61.00;;;;;9.65;100.00;101503.97;6264322;22;51015;-70
2023/01/10 13:55:41;;;;;;;;;66.67;55.33;;;;;9.72;100.00;101505.06;6265371;22;49782;-71
2023/01/10 13:58:13;;;;;;;;;27.75;24.75;;;;;9.74;100.00;101503.41;6265918;22;49706;-71
2023/01/10 14:03:48;;;;;;;;;43.25;40.00;;;;;9.64;100.00;101478.56;6267658;22;49573;-69
2023/01/10 14:06:30;;;;;;;;;29.75;25.75;;;;;8.98;100.00;101372.25;6270345;22;49637;-68
2023/01/10 14:08:59;;;;;;;;;23.00;23.00;;;;;8.48;100.00;101311.91;6266897;22;49656;-69
2023/01/10 14:11:42;;;;;;;;;23.00;21.75;;;;;9.82;100.00;101482.69;6266261;22;49703;-69
2023/01/10 14:14:19;;;;;;;;;15.25;14.00;;;;;9.75;100.00;101473.75;6265423;22;51862;-69
2023/01/10 14:16:48;;;;;;;;;7.00;7.00;;;;;9.55;100.00;101427.56;6265336;22;49589;-68
2023/01/10 14:19:32;;;;;;;;;10.00;9.00;;;;;9.57;100.00;101439.91;6266364;22;49726;-69
2023/01/10 14:22:00;;;;;;;;;4.00;4.00;;;;;9.92;100.00;101503.16;6289868;22;49632;-72
2023/01/10 14:24:42;;;;;;;;;3.50;3.00;;;;;9.93;100.00;101484.84;6266010;22;50954;-70
2023/01/10 14:27:16;;;;;;;;;9.50;8.00;;;;;9.25;100.00;101377.56;6265476;22;49911;-70
2023/01/10 14:30:01;;;;;;;;;7.75;7.75;;;;;9.06;100.00;101341.97;6263645;22;49876;-69
2023/01/10 14:32:34;;;;;;;;;12.50;9.00;;;;;10.02;100.00;101485.16;6265918;22;49782;-69
2023/01/10 14:35:03;;;;;;;;;8.00;8.00;;;;;9.83;100.00;101445.16;6264850;22;50983;-69
2023/01/10 14:37:36;;;;;;;;;9.50;9.50;;;;;9.37;100.00;101375.41;6268745;22;49924;-70
2023/01/10 14:40:16;;;;;;;;;12.50;11.25;;;;;9.92;100.00;101455.94;6269151;22;49974;-70
2023/01/10 14:42:44;;;;;;;;;7.50;4.00;;;;;9.36;100.00;101347.38;6267868;22;49542;-70
2023/01/10 14:45:33;;;;;;;;;8.50;8.00;;;;;10.17;100.00;101479.56;6265353;22;50928;-69
2023/01/10 14:47:58;;;;;;;;;9.00;8.75;;;;;9.96;100.00;101450.00;6257429;22;49609;-70
2023/01/10 14:50:31;;;;;;;;;12.50;9.75;;;;;9.73;100.00;101413.34;6267503;22;49884;-68
2023/01/10 14:52:58;;;;;;;;;9.25;7.00;;;;;9.79;100.00;101403.94;6265139;22;49773;-70
2023/01/10 14:55:27;;;;;;;;;7.75;7.00;;;;;10.17;100.00;101492.69;6264844;22;51040;-72
2023/01/10 14:57:57;;;;;;;;;11.25;9.50;;;;;10.29;100.00;101495.75;6265929;22;49698;-69
2023/01/10 15:00:26;;;;;;;;;7.50;7.50;;;;;10.11;100.00;101433.88;6266728;22;49513;-69
2023/01/10 15:02:52;;;;;;;;;5.25;4.00;;;;;9.98;100.00;101404.59;6267869;22;49722;-69
2023/01/10 15:05:24;;;;;;;;;3.00;3.00;;;;;10.14;100.00;101439.22;6266703;22;49718;-69
2023/01/10 15:07:50;;;;;;;;;7.25;5.25;;;;;9.17;100.00;101283.00;6267010;22;50030;-70
2023/01/10 15:10:30;;;;;;;;;2.00;2.00;;;;;10.39;100.00;101472.44;6267250;22;49674;-70
2023/01/10 15:13:00;;;;;;;;;3.00;3.00;;;;;9.93;100.00;101394.78;6265144;22;50119;-71
2023/01/10 15:15:33;;;;;;;;;5.25;4.25;;;;;9.15;100.00;101267.22;6266502;22;50537;-71
2023/01/10 15:18:01;;;;;;;;;1.25;1.00;;;;;9.88;100.00;101372.78;6267106;22;49625;-70
2023/01/10 15:20:27;;;;;;;;;4.75;4.00;;;;;9.62;100.00;101322.09;6267470;22;49572;-70
2023/01/10 15:22:59;;;;;;;;;2.00;2.00;;;;;10.39;100.00;101454.06;6267053;22;49855;-70
2023/01/10 15:25:27;;;;;;;;;4.00;3.00;;;;;10.44;100.00;101457.75;6267347;22;50826;-69
2023/01/10 15:27:53;;;;;;;;;4.00;3.25;;;;;9.97;100.00;101373.97;6267496;22;49511;-69
2023/01/10 15:30:27;;;;;;;;;2.00;2.00;;;;;10.01;100.00;101386.34;6267195;22;50116;-67
2023/01/10 15:32:56;;;;;;;;;3.00;3.00;;;;;10.10;100.00;101393.63;6266616;22;49886;-64
2023/01/10 15:35:25;;;;;;;;;1.50;1.50;;;;;10.38;100.00;101412.91;6265327;22;49563;-67
2023/01/10 15:38:01;;;;;;;;;3.00;2.00;;;;;10.30;100.00;101452.03;6287023;22;50084;-68
2023/01/10 15:40:36;;;;;;;;;1.50;1.50;;;;;9.77;100.00;101324.34;6265774;22;49741;-67
2023/01/10 15:43:17;;;;;;;;;2.25;1.00;;;;;10.48;100.00;101439.50;6265829;22;49901;-67
2023/01/10 15:45:44;;;;;;;;;2.50;2.00;;;;;10.30;100.00;101418.81;6269529;22;49912;-68
2023/01/10 15:48:29;;;;;;;;;1.00;1.00;;;;;10.51;100.00;101446.56;6266441;22;49821;-67
2023/01/10 15:50:58;;;;;;;;;1.25;1.00;;;;;10.51;100.00;101441.31;6267239;22;49566;-67
2023/01/10 15:54:25;;;;;;;;;1.00;1.00;;;;;10.50;100.00;101442.16;6267040;22;49866;-67
2023/01/10 15:57:17;;;;;;;;;3.00;2.25;;;;;10.53;100.00;101432.69;6173823;23;50655;-65
2023/01/10 15:59:48;;;;;;;;;1.00;1.00;;;;;10.04;100.00;101354.09;6265841;22;49649;-68
2023/01/10 16:02:21;;;;;;;;;2.00;2.00;;;;;10.53;100.00;101443.19;6267547;22;49613;-67
2023/01/10 16:04:49;;;;;;;;;3.50;2.00;;;;;10.05;100.00;101355.88;6268925;22;49919;-67
2023/01/10 16:07:25;;;;;;;;;2.25;1.25;;;;;10.37;100.00;101411.13;6266005;22;49614;-77
2023/01/10 16:10:14;;;;;;;;;3.00;3.00;;;;;10.20;100.00;101364.22;6267175;22;49663;-69
2023/01/10 16:15:31;;;;;;;;;1.00;1.00;;;;;10.27;100.00;101368.84;6264824;22;49959;-68
2023/01/10 16:17:56;;;;;;;;;3.00;2.75;;;;;10.04;100.00;101330.47;6264929;22;50566;-72
2023/01/10 16:20:26;;;;;;;;;1.25;1.25;;;;;10.33;100.00;101370.78;6271639;22;49577;-68
2023/01/10 16:22:52;;;;;;;;;2.75;1.00;;;;;10.37;100.00;101374.41;6273490;22;49272;-68
2023/01/10 16:25:30;;;;;;;;;1.00;1.00;;;;;10.63;100.00;101422.47;6264246;22;50109;-67
2023/01/10 16:27:56;;;;;;;;;2.00;2.00;;;;;10.09;100.00;101317.50;6263472;22;51697;-73
2023/01/10 16:30:25;;;;;;;;;2.25;2.25;;;;;10.41;100.00;101366.66;6266666;22;50117;-70
2023/01/10 16:32:50;;;;;;;;;3.25;2.25;;;;;10.35;100.00;101345.47;6265025;22;50384;-76
2023/01/10 16:35:16;;;;;;;;;2.75;2.75;;;;;10.69;100.00;101415.66;6267672;22;49804;-74
2023/01/10 16:37:42;;;;;;;;;1.00;1.00;;;;;10.62;100.00;101384.81;6270589;22;49790;-72
2023/01/10 16:40:17;;;;;;;;;2.50;2.50;;;;;10.11;100.00;101295.72;6278662;22;49851;-71
2023/01/10 16:45:26;;;;;;;;;8.00;4.00;;;;;10.55;100.00;101357.47;6267134;22;49681;-66
2023/01/10 16:47:51;;;;;;;;;6.25;3.00;;;;;10.72;100.00;101378.13;6266378;22;49918;-69
2023/01/10 16:50:18;;;;;;;;;2.00;2.00;;;;;10.80;100.00;101395.84;6265731;22;49824;-76
2023/01/10 16:52:44;;;;;;;;;2.00;2.00;;;;;10.63;100.00;101341.97;6265804;22;49745;-67
2023/01/10 16:55:16;;;;;;;;;1.50;1.00;;;;;10.45;100.00;101312.53;6265533;22;49927;-73
2023/01/10 16:57:45;;;;;;;;;3.00;1.25;;;;;10.51;100.00;101313.59;6266403;22;51089;-71
2023/01/10 17:00:12;;;;;;;;;2.00;2.00;;;;;10.57;100.00;101305.91;6265520;22;49632;-70
2023/01/10 17:02:38;;;;;;;;;2.00;2.00;;;;;10.34;100.00;101266.72;6267355;22;49707;-68
2023/01/10 17:05:04;;;;;;;;;3.00;3.00;;;;;10.92;100.00;101365.56;6267153;22;49831;-65
2023/01/10 17:07:29;;;;;;;;;2.00;2.00;;;;;10.90;100.00;101360.25;6267673;22;51175;-79
2023/01/10 17:09:57;;;;;;;;;1.00;1.00;;;;;10.37;100.00;101279.91;6266627;22;54614;-72
2023/01/10 17:12:29;;;;;;;;;2.50;2.25;;;;;10.75;100.00;101336.19;6272989;22;49533;-67
2023/01/10 17:14:54;;;;;;;;;2.75;2.75;;;;;10.42;100.00;101281.84;6266679;22;49493;-70